Terminal Aerodrome Forecast
Issued by NWS Nashville, TN

Current Version | Previous Version | Text Only | Print | Product List | Glossary On
Versions: 1 2 3 4 5 6 7 8 9 10 11 12 13 14 15 16 17 18 19 20
000
FTUS44 KOHX 240500
TAFCSV
TAF
KCSV 240522Z 2406/2506 19012G20KT P6SM SCT012 BKN020
     FM241100 21014G24KT P6SM VCSH BKN020
     FM241500 24013G22KT P6SM SCT015 BKN025
     FM242000 25012KT P6SM BKN035
     FM250000 25005KT P6SM SCT030=

USA.gov is the U.S. government's official web portal to all federal, state and local government web resources and services.